Time;durP1;ratioP1;P1;durP2;ratioP2;P2;SDS_P1;SDS_P2;PMS_P1;PMS_P2;Temp;Humidity;BMP_temperature;BMP_pressure;BME280_temperature;BME280_humidity;BME280_pressure;Samples;Min_cycle;Max_cycle;Signal;HPM_P1;HPM_P2
2022/04/06 00:01:56;;;;;;;23.53;13.87;;;;;;;;;;5095776;28;20647;-47
2022/04/06 00:04:24;;;;;;;21.57;13.43;;;;;;;;;;5095423;28;20305;-47
2022/04/06 00:06:54;;;;;;;19.37;11.93;;;;;;;;;;5095876;28;20271;-47
2022/04/06 00:09:21;;;;;;;19.30;13.00;;;;;;;;;;5095447;28;20209;-48
2022/04/06 00:11:49;;;;;;;25.07;13.03;;;;;;;;;;5095190;28;20618;-48
2022/04/06 00:14:16;;;;;;;19.13;12.23;;;;;;;;;;5095367;28;20230;-47
2022/04/06 00:16:44;;;;;;;26.70;14.73;;;;;;;;;;5095735;28;20269;-47
2022/04/06 00:19:11;;;;;;;27.23;15.00;;;;;;;;;;5095188;28;20289;-47
2022/04/06 00:21:38;;;;;;;23.37;13.77;;;;;;;;;;5095897;28;20224;-48
2022/04/06 00:24:06;;;;;;;22.90;13.03;;;;;;;;;;5095098;28;20315;-48
2022/04/06 00:26:33;;;;;;;22.30;12.87;;;;;;;;;;5095358;28;20202;-48
2022/04/06 00:29:00;;;;;;;24.80;14.53;;;;;;;;;;5094485;28;20247;-47
2022/04/06 00:31:27;;;;;;;25.03;14.47;;;;;;;;;;5095288;28;20236;-47
2022/04/06 00:33:55;;;;;;;22.70;14.53;;;;;;;;;;5095036;28;20298;-48
2022/04/06 00:36:22;;;;;;;22.47;14.07;;;;;;;;;;5095399;28;20226;-49
2022/04/06 00:38:49;;;;;;;23.10;16.03;;;;;;;;;;5095275;28;20217;-48
2022/04/06 00:41:17;;;;;;;36.57;17.43;;;;;;;;;;5094978;28;20238;-47
2022/04/06 00:43:44;;;;;;;26.00;16.13;;;;;;;;;;5095367;28;20520;-50
2022/04/06 00:46:10;;;;;;;26.33;15.77;;;;;;;;;;5095019;28;20214;-49
2022/04/06 00:48:38;;;;;;;29.00;17.07;;;;;;;;;;5095052;28;20283;-49
2022/04/06 00:51:05;;;;;;;29.87;17.20;;;;;;;;;;5094865;28;20641;-47
2022/04/06 00:53:32;;;;;;;32.47;18.40;;;;;;;;;;5095053;28;20340;-52
2022/04/06 00:55:59;;;;;;;33.03;18.83;;;;;;;;;;5094207;28;20198;-47
2022/04/06 00:58:27;;;;;;;41.93;23.97;;;;;;;;;;5094710;28;20225;-47
2022/04/06 01:00:54;;;;;;;35.83;19.73;;;;;;;;;;5094020;28;20629;-48
2022/04/06 01:03:22;;;;;;;41.77;21.50;;;;;;;;;;5094890;28;20191;-48
2022/04/06 01:05:50;;;;;;;40.93;21.30;;;;;;;;;;5094674;28;20304;-47
2022/04/06 01:08:17;;;;;;;31.97;20.13;;;;;;;;;;5095039;28;20195;-48
2022/04/06 01:10:45;;;;;;;34.53;19.17;;;;;;;;;;5094863;28;20203;-47
2022/04/06 01:13:13;;;;;;;34.20;19.73;;;;;;;;;;5094826;28;20222;-48
2022/04/06 01:15:40;;;;;;;34.13;19.17;;;;;;;;;;5094672;28;20230;-48
2022/04/06 01:18:08;;;;;;;44.60;27.77;;;;;;;;;;5094486;28;20206;-48
2022/04/06 01:20:35;;;;;;;36.80;21.80;;;;;;;;;;5095102;28;20277;-48
2022/04/06 01:23:04;;;;;;;38.23;20.53;;;;;;;;;;5096277;28;20229;-48
2022/04/06 01:25:31;;;;;;;37.27;19.73;;;;;;;;;;5098624;28;20236;-47
2022/04/06 01:27:58;;;;;;;35.90;20.50;;;;;;;;;;5098905;28;20218;-47
2022/04/06 01:30:26;;;;;;;32.57;18.70;;;;;;;;;;5098862;28;20230;-48
2022/04/06 01:32:56;;;;;;;34.43;18.77;;;;;;;;;;5098502;28;20683;-47
2022/04/06 01:35:24;;;;;;;28.20;16.07;;;;;;;;;;5098865;28;20206;-47
2022/04/06 01:37:51;;;;;;;28.13;17.13;;;;;;;;;;5098636;28;20638;-47
2022/04/06 01:40:18;;;;;;;28.93;16.93;;;;;;;;;;5098936;28;20213;-47
2022/04/06 01:42:46;;;;;;;34.70;17.67;;;;;;;;;;5098246;28;20240;-47
2022/04/06 01:45:13;;;;;;;32.60;17.57;;;;;;;;;;5098283;28;20275;-47
2022/04/06 01:47:41;;;;;;;25.97;14.87;;;;;;;;;;5098439;28;20222;-47
2022/04/06 01:52:54;;;;;;;21.17;13.53;;;;;;;;;;5098388;28;20239;-47
2022/04/06 01:55:21;;;;;;;26.80;15.23;;;;;;;;;;5098027;28;20226;-47
2022/04/06 01:57:49;;;;;;;21.30;14.10;;;;;;;;;;5098024;28;20582;-48
2022/04/06 02:00:17;;;;;;;22.90;14.00;;;;;;;;;;5097736;28;20293;-48
2022/04/06 02:02:52;;;;;;;25.10;15.23;;;;;;;;;;5097945;28;20629;-48
2022/04/06 02:05:21;;;;;;;23.97;13.83;;;;;;;;;;5098281;28;20245;-47
2022/04/06 02:07:48;;;;;;;22.80;14.43;;;;;;;;;;5098221;28;20267;-47
2022/04/06 02:10:16;;;;;;;21.73;13.80;;;;;;;;;;5097669;28;20286;-48
2022/04/06 02:12:44;;;;;;;24.53;14.90;;;;;;;;;;5097978;28;20213;-50
2022/04/06 02:15:12;;;;;;;29.73;16.37;;;;;;;;;;5096860;28;20206;-47
2022/04/06 02:17:40;;;;;;;27.43;16.50;;;;;;;;;;5097767;28;20718;-48
2022/04/06 02:20:08;;;;;;;30.27;16.67;;;;;;;;;;5097873;28;20210;-47
2022/04/06 02:22:36;;;;;;;71.17;52.47;;;;;;;;;;5097431;28;20244;-47
2022/04/06 02:25:04;;;;;;;28.13;16.67;;;;;;;;;;5097388;28;20249;-47
2022/04/06 02:27:31;;;;;;;27.40;16.03;;;;;;;;;;5097473;28;20664;-49
2022/04/06 02:29:58;;;;;;;26.50;15.63;;;;;;;;;;5097479;28;20703;-49
2022/04/06 02:32:25;;;;;;;28.37;15.50;;;;;;;;;;5097449;28;20286;-47
2022/04/06 02:34:52;;;;;;;30.63;16.33;;;;;;;;;;5096107;28;20226;-47
2022/04/06 02:37:19;;;;;;;24.30;15.53;;;;;;;;;;5097430;28;20202;-47
2022/04/06 02:39:49;;;;;;;30.43;16.87;;;;;;;;;;5097211;28;20617;-48
2022/04/06 02:42:16;;;;;;;28.07;17.10;;;;;;;;;;5097763;28;20244;-47
2022/04/06 02:44:44;;;;;;;126.37;63.73;;;;;;;;;;5097107;28;20672;-48
2022/04/06 02:47:11;;;;;;;40.40;20.83;;;;;;;;;;5097159;28;20203;-47
2022/04/06 02:49:38;;;;;;;36.20;18.93;;;;;;;;;;5097102;28;20226;-47
2022/04/06 02:52:07;;;;;;;31.97;17.83;;;;;;;;;;5096917;28;20565;-47
2022/04/06 02:54:34;;;;;;;41.10;19.40;;;;;;;;;;5097267;28;20304;-48
2022/04/06 02:57:02;;;;;;;35.17;18.53;;;;;;;;;;5097208;28;20198;-47
2022/04/06 02:59:29;;;;;;;46.27;21.17;;;;;;;;;;5097069;28;20218;-47
2022/04/06 03:01:56;;;;;;;37.80;19.07;;;;;;;;;;5097501;28;20194;-47
2022/04/06 03:04:23;;;;;;;42.37;20.73;;;;;;;;;;5096683;28;20222;-47
2022/04/06 03:06:50;;;;;;;106.43;52.87;;;;;;;;;;5097600;28;20562;-50
2022/04/06 03:09:17;;;;;;;38.83;19.50;;;;;;;;;;5096645;28;20227;-47
2022/04/06 03:11:45;;;;;;;40.30;20.73;;;;;;;;;;5096527;28;20252;-48
2022/04/06 03:14:12;;;;;;;37.47;20.33;;;;;;;;;;5096753;28;20272;-47
2022/04/06 03:16:39;;;;;;;33.03;18.83;;;;;;;;;;5096689;28;20244;-48
2022/04/06 03:19:06;;;;;;;39.23;21.00;;;;;;;;;;5096597;28;20199;-48
2022/04/06 03:21:33;;;;;;;46.50;22.60;;;;;;;;;;5096360;28;20244;-50
2022/04/06 03:24:00;;;;;;;39.63;21.97;;;;;;;;;;5096529;28;20226;-51
2022/04/06 03:26:27;;;;;;;72.17;32.90;;;;;;;;;;5096930;28;20241;-52
2022/04/06 03:28:54;;;;;;;49.50;24.23;;;;;;;;;;5096006;28;20202;-49
2022/04/06 03:31:21;;;;;;;52.83;25.77;;;;;;;;;;5096247;28;20705;-48
2022/04/06 03:33:48;;;;;;;45.83;23.60;;;;;;;;;;5096001;28;20225;-47
2022/04/06 03:36:16;;;;;;;40.37;23.00;;;;;;;;;;5095852;28;20240;-47
2022/04/06 03:38:43;;;;;;;49.47;26.00;;;;;;;;;;5095929;28;20285;-49
2022/04/06 03:41:10;;;;;;;44.90;24.17;;;;;;;;;;5096173;28;20226;-47
2022/04/06 03:43:38;;;;;;;40.93;23.57;;;;;;;;;;5095691;28;20210;-47
2022/04/06 03:46:05;;;;;;;49.60;25.43;;;;;;;;;;5095099;28;20229;-49
2022/04/06 03:48:32;;;;;;;63.83;36.20;;;;;;;;;;5095582;28;20256;-47
2022/04/06 03:50:59;;;;;;;53.73;26.57;;;;;;;;;;5095871;28;20280;-49
2022/04/06 03:53:26;;;;;;;52.50;26.40;;;;;;;;;;5095510;28;20283;-51
2022/04/06 03:55:54;;;;;;;53.63;28.03;;;;;;;;;;5095770;28;20230;-50
2022/04/06 03:58:21;;;;;;;53.60;28.00;;;;;;;;;;5095477;28;20592;-52
2022/04/06 04:00:48;;;;;;;53.00;28.93;;;;;;;;;;5095338;28;20234;-47
2022/04/06 04:03:15;;;;;;;47.80;26.70;;;;;;;;;;5095298;28;20704;-47
2022/04/06 04:05:43;;;;;;;54.33;29.40;;;;;;;;;;5095210;28;20306;-47
2022/04/06 04:08:09;;;;;;;88.17;46.17;;;;;;;;;;5095316;28;20222;-50
2022/04/06 04:10:37;;;;;;;74.83;40.97;;;;;;;;;;5095303;28;20241;-52
2022/04/06 04:13:04;;;;;;;62.23;33.00;;;;;;;;;;5099991;28;20214;-47
2022/04/06 04:15:31;;;;;;;76.33;42.43;;;;;;;;;;5108672;28;20629;-47
2022/04/06 04:17:58;;;;;;;63.50;35.60;;;;;;;;;;5111926;27;20259;-49
2022/04/06 04:20:26;;;;;;;68.10;35.57;;;;;;;;;;5112795;28;20687;-48
2022/04/06 04:22:53;;;;;;;65.07;34.97;;;;;;;;;;5111352;28;20628;-50
2022/04/06 04:25:20;;;;;;;68.30;36.83;;;;;;;;;;5101371;28;20264;-50
2022/04/06 04:27:47;;;;;;;67.00;35.87;;;;;;;;;;5100953;28;20249;-48
2022/04/06 04:30:14;;;;;;;69.67;37.40;;;;;;;;;;5102495;28;20237;-46
2022/04/06 04:32:42;;;;;;;78.23;39.07;;;;;;;;;;5094454;28;20234;-49
2022/04/06 04:35:11;;;;;;;69.57;37.83;;;;;;;;;;5094858;28;20241;-47
2022/04/06 04:37:38;;;;;;;73.17;38.13;;;;;;;;;;5093797;28;20254;-50
2022/04/06 04:40:05;;;;;;;81.13;41.13;;;;;;;;;;5098367;28;20585;-56
2022/04/06 04:42:33;;;;;;;73.20;40.27;;;;;;;;;;5111210;28;20718;-56
2022/04/06 04:45:00;;;;;;;82.07;42.53;;;;;;;;;;5105693;28;20271;-54
2022/04/06 04:47:30;;;;;;;81.70;42.90;;;;;;;;;;5112959;28;20221;-49
2022/04/06 04:49:57;;;;;;;76.60;39.97;;;;;;;;;;5110514;28;20214;-55
2022/04/06 04:52:25;;;;;;;93.83;49.60;;;;;;;;;;5107380;28;20267;-50
2022/04/06 04:54:52;;;;;;;90.07;44.87;;;;;;;;;;5109428;28;20253;-48
2022/04/06 04:57:19;;;;;;;87.10;44.80;;;;;;;;;;5113828;28;20716;-48
2022/04/06 04:59:47;;;;;;;94.10;46.73;;;;;;;;;;5113068;28;20291;-51
2022/04/06 05:02:14;;;;;;;89.80;45.13;;;;;;;;;;5112733;28;20221;-52
2022/04/06 05:04:41;;;;;;;93.50;45.40;;;;;;;;;;5113328;28;20233;-51
2022/04/06 05:07:09;;;;;;;98.87;46.83;;;;;;;;;;5113721;28;20283;-47
2022/04/06 05:09:36;;;;;;;96.27;47.80;;;;;;;;;;5107804;28;20198;-56
2022/04/06 05:12:04;;;;;;;118.27;60.70;;;;;;;;;;5105798;28;20226;-52
2022/04/06 05:14:31;;;;;;;110.30;59.83;;;;;;;;;;5105269;28;20201;-57
2022/04/06 05:17:00;;;;;;;121.23;62.40;;;;;;;;;;5103721;28;20198;-52
2022/04/06 05:19:27;;;;;;;86.73;46.17;;;;;;;;;;5104460;28;20201;-54
2022/04/06 05:21:54;;;;;;;79.10;42.20;;;;;;;;;;5081716;28;20260;-53
2022/04/06 05:24:21;;;;;;;76.60;40.93;;;;;;;;;;5098903;28;20204;-52
2022/04/06 05:26:49;;;;;;;78.37;42.20;;;;;;;;;;5099413;28;20301;-52
2022/04/06 05:29:16;;;;;;;91.03;44.30;;;;;;;;;;5098785;28;20214;-51
2022/04/06 05:31:43;;;;;;;87.13;46.10;;;;;;;;;;5099151;28;20198;-50
2022/04/06 05:34:10;;;;;;;86.47;43.30;;;;;;;;;;5110696;28;20214;-48
2022/04/06 05:36:38;;;;;;;79.20;37.87;;;;;;;;;;5115057;28;20186;-48
2022/04/06 05:39:05;;;;;;;85.93;40.60;;;;;;;;;;5115026;28;20292;-49
2022/04/06 05:41:32;;;;;;;84.87;40.07;;;;;;;;;;5115369;28;20218;-49
2022/04/06 05:43:59;;;;;;;80.30;39.33;;;;;;;;;;5114712;28;20286;-48
2022/04/06 05:46:26;;;;;;;80.33;39.00;;;;;;;;;;5115081;28;20233;-48
2022/04/06 05:48:53;;;;;;;74.27;37.90;;;;;;;;;;5114693;28;20252;-47
2022/04/06 05:51:21;;;;;;;66.00;35.50;;;;;;;;;;5114649;28;20208;-48
2022/04/06 05:53:48;;;;;;;72.67;36.20;;;;;;;;;;5114801;28;20281;-51
2022/04/06 05:56:16;;;;;;;68.37;36.30;;;;;;;;;;5114804;28;20236;-48
2022/04/06 05:58:43;;;;;;;64.93;32.67;;;;;;;;;;5114673;28;20225;-47
2022/04/06 06:01:11;;;;;;;66.90;32.60;;;;;;;;;;5114837;28;20245;-48
2022/04/06 06:03:38;;;;;;;64.33;32.33;;;;;;;;;;5114527;28;20194;-49
2022/04/06 06:06:05;;;;;;;69.73;32.77;;;;;;;;;;5114411;28;20245;-47
2022/04/06 06:08:32;;;;;;;63.53;31.57;;;;;;;;;;5116002;28;20225;-47
2022/04/06 06:10:59;;;;;;;71.90;33.63;;;;;;;;;;5118259;28;20206;-49
2022/04/06 06:13:26;;;;;;;70.27;34.80;;;;;;;;;;5118469;28;20262;-48
2022/04/06 06:15:54;;;;;;;74.87;34.53;;;;;;;;;;5117496;28;20202;-48
2022/04/06 06:18:22;;;;;;;71.23;34.60;;;;;;;;;;5118162;28;20229;-48
2022/04/06 06:20:49;;;;;;;71.53;33.40;;;;;;;;;;5117973;28;20293;-47
2022/04/06 06:23:16;;;;;;;68.87;32.57;;;;;;;;;;5118128;28;20577;-48
2022/04/06 06:25:43;;;;;;;65.23;33.60;;;;;;;;;;5117862;28;20217;-48
2022/04/06 06:28:11;;;;;;;72.20;36.47;;;;;;;;;;5118259;27;20278;-48
2022/04/06 06:30:38;;;;;;;57.97;28.97;;;;;;;;;;5118610;28;20233;-49
2022/04/06 06:33:05;;;;;;;56.70;29.37;;;;;;;;;;5117639;28;20680;-49
2022/04/06 06:35:32;;;;;;;92.40;39.40;;;;;;;;;;5117675;28;20232;-49
2022/04/06 06:37:59;;;;;;;107.50;57.43;;;;;;;;;;5117649;27;20206;-47
2022/04/06 06:40:27;;;;;;;100.37;45.97;;;;;;;;;;5117861;28;20677;-48
2022/04/06 06:42:54;;;;;;;76.00;35.07;;;;;;;;;;5117468;28;20201;-47
2022/04/06 06:45:22;;;;;;;73.73;31.03;;;;;;;;;;5117645;28;20268;-47
2022/04/06 06:47:49;;;;;;;80.57;34.30;;;;;;;;;;5117429;28;20628;-48
2022/04/06 06:50:18;;;;;;;56.77;26.37;;;;;;;;;;5118000;28;20680;-48
2022/04/06 06:52:45;;;;;;;50.63;25.40;;;;;;;;;;5117442;27;20663;-48
2022/04/06 06:55:14;;;;;;;42.30;23.30;;;;;;;;;;5117932;28;20202;-47
2022/04/06 06:57:41;;;;;;;42.47;28.73;;;;;;;;;;5117161;28;20206;-48
2022/04/06 07:00:11;;;;;;;38.73;22.17;;;;;;;;;;5117482;28;20245;-48
2022/04/06 07:02:40;;;;;;;27.57;18.03;;;;;;;;;;5117667;28;20570;-49
2022/04/06 07:05:11;;;;;;;44.23;23.47;;;;;;;;;;5117283;28;20202;-50
2022/04/06 07:07:48;;;;;;;26.73;16.47;;;;;;;;;;5117481;28;20198;-50
2022/04/06 07:10:16;;;;;;;26.33;19.33;;;;;;;;;;5117532;28;20616;-51
2022/04/06 07:12:43;;;;;;;32.77;21.87;;;;;;;;;;5117451;28;20229;-47
2022/04/06 07:15:10;;;;;;;28.30;17.50;;;;;;;;;;5116383;28;20202;-47
2022/04/06 07:17:39;;;;;;;31.23;17.63;;;;;;;;;;5116984;28;20659;-48
2022/04/06 07:20:07;;;;;;;23.53;15.37;;;;;;;;;;5116943;28;20217;-51
2022/04/06 07:22:34;;;;;;;24.03;15.40;;;;;;;;;;5117189;28;20246;-49
2022/04/06 07:25:01;;;;;;;22.03;14.10;;;;;;;;;;5116685;28;20197;-48
2022/04/06 07:27:36;;;;;;;22.23;14.63;;;;;;;;;;5116747;28;20229;-50
2022/04/06 07:30:05;;;;;;;23.80;14.40;;;;;;;;;;5115447;28;20303;-48
2022/04/06 07:32:33;;;;;;;33.00;21.70;;;;;;;;;;5116868;28;20225;-54
2022/04/06 07:35:00;;;;;;;37.00;23.53;;;;;;;;;;5116560;28;20226;-53
2022/04/06 07:37:38;;;;;;;40.03;23.23;;;;;;;;;;5116422;27;20202;-53
2022/04/06 07:40:10;;;;;;;46.00;25.13;;;;;;;;;;5102452;28;20213;-48
2022/04/06 07:42:38;;;;;;;47.10;24.77;;;;;;;;;;5096755;28;20215;-51
2022/04/06 07:45:10;;;;;;;43.87;25.87;;;;;;;;;;5096224;28;20259;-47
2022/04/06 07:47:37;;;;;;;55.37;28.20;;;;;;;;;;5095854;28;20205;-50
2022/04/06 07:50:06;;;;;;;52.57;28.60;;;;;;;;;;5096543;28;20223;-48
2022/04/06 07:52:33;;;;;;;55.23;29.93;;;;;;;;;;5096337;28;20528;-48
2022/04/06 07:55:01;;;;;;;56.67;30.17;;;;;;;;;;5115362;28;20237;-48
2022/04/06 07:57:28;;;;;;;56.47;30.40;;;;;;;;;;5107120;28;20210;-48
2022/04/06 07:59:56;;;;;;;54.33;28.93;;;;;;;;;;5095921;28;20385;-48
2022/04/06 08:02:23;;;;;;;52.87;30.77;;;;;;;;;;5095570;28;20230;-48
2022/04/06 08:04:50;;;;;;;50.67;30.50;;;;;;;;;;5095856;28;20207;-48
2022/04/06 08:07:18;;;;;;;49.87;29.83;;;;;;;;;;5096438;28;20226;-47
2022/04/06 08:09:44;;;;;;;50.13;30.37;;;;;;;;;;5095584;28;20231;-49
2022/04/06 08:12:12;;;;;;;50.90;29.80;;;;;;;;;;5095573;28;20232;-48
2022/04/06 08:14:39;;;;;;;45.00;26.17;;;;;;;;;;5095677;28;20290;-49
2022/04/06 08:17:06;;;;;;;47.60;28.63;;;;;;;;;;5095576;28;20299;-49
2022/04/06 08:19:34;;;;;;;43.67;27.57;;;;;;;;;;5095631;28;20206;-48
2022/04/06 08:22:01;;;;;;;44.10;28.30;;;;;;;;;;5095262;28;20245;-48
2022/04/06 08:24:35;;;;;;;50.07;27.30;;;;;;;;;;5097844;28;20202;-49
2022/04/06 08:27:03;;;;;;;44.83;27.67;;;;;;;;;;5115694;28;20260;-48
2022/04/06 08:29:30;;;;;;;41.50;26.27;;;;;;;;;;5115244;28;20229;-50
2022/04/06 08:31:56;;;;;;;42.10;26.57;;;;;;;;;;5115724;28;20198;-49
2022/04/06 08:34:24;;;;;;;37.23;24.73;;;;;;;;;;5115408;28;20231;-50
2022/04/06 08:36:51;;;;;;;38.70;24.70;;;;;;;;;;5115844;28;20263;-48
2022/04/06 08:39:18;;;;;;;37.33;23.33;;;;;;;;;;5116111;28;20206;-48
2022/04/06 08:41:54;;;;;;;34.60;23.47;;;;;;;;;;5115570;28;20237;-49
2022/04/06 08:44:23;;;;;;;31.57;22.77;;;;;;;;;;5115368;28;20195;-48
2022/04/06 08:46:54;;;;;;;32.47;22.03;;;;;;;;;;5115252;28;20280;-48
2022/04/06 08:49:23;;;;;;;34.37;22.47;;;;;;;;;;5115361;28;20244;-48
2022/04/06 08:51:51;;;;;;;50.83;33.40;;;;;;;;;;5115638;28;20206;-49
2022/04/06 08:54:19;;;;;;;205.07;65.53;;;;;;;;;;5114421;28;20233;-50
2022/04/06 08:56:46;;;;;;;117.47;51.37;;;;;;;;;;5115189;28;20285;-48
2022/04/06 08:59:13;;;;;;;456.27;197.40;;;;;;;;;;5115538;28;20228;-47
2022/04/06 09:01:40;;;;;;;324.23;141.43;;;;;;;;;;5115715;28;20221;-50
2022/04/06 09:04:08;;;;;;;506.43;242.17;;;;;;;;;;5115187;28;20227;-49
2022/04/06 09:07:06;;;;;;;588.80;320.67;;;;;;;;;;5115007;28;20282;-49
2022/04/06 09:09:35;;;;;;;364.20;179.73;;;;;;;;;;5115362;28;20233;-48
2022/04/06 09:12:07;;;;;;;379.67;185.13;;;;;;;;;;5115012;28;20205;-48
2022/04/06 09:14:35;;;;;;;320.17;157.10;;;;;;;;;;5115498;28;20232;-48
2022/04/06 09:17:06;;;;;;;173.70;88.60;;;;;;;;;;5115091;28;20205;-48
2022/04/06 09:19:37;;;;;;;192.13;90.27;;;;;;;;;;5099580;28;20276;-50
2022/04/06 09:22:07;;;;;;;295.00;137.67;;;;;;;;;;5094652;28;20202;-47
2022/04/06 09:24:34;;;;;;;427.40;226.87;;;;;;;;;;5094543;28;20210;-50
2022/04/06 09:27:03;;;;;;;110.47;57.30;;;;;;;;;;5094719;28;20227;-48
2022/04/06 09:29:31;;;;;;;181.27;75.20;;;;;;;;;;5094231;28;20245;-49
2022/04/06 09:32:07;;;;;;;140.60;53.37;;;;;;;;;;5094628;28;20206;-49
2022/04/06 09:34:54;;;;;;;144.37;63.10;;;;;;;;;;5094568;28;20226;-49
2022/04/06 09:37:29;;;;;;;120.27;53.43;;;;;;;;;;5094057;28;20230;-49
2022/04/06 09:39:58;;;;;;;109.37;54.40;;;;;;;;;;5094377;28;20652;-48
2022/04/06 09:42:26;;;;;;;93.83;59.53;;;;;;;;;;5093470;28;20207;-48
2022/04/06 09:47:51;;;;;;;65.17;39.10;;;;;;;;;;5098620;28;20222;-49
2022/04/06 09:50:23;;;;;;;77.47;43.43;;;;;;;;;;5098313;28;20229;-50
2022/04/06 09:52:51;;;;;;;68.97;45.50;;;;;;;;;;5098343;28;20203;-49
2022/04/06 09:55:19;;;;;;;77.13;46.20;;;;;;;;;;5098346;28;20199;-48
2022/04/06 09:57:51;;;;;;;77.80;40.77;;;;;;;;;;5098498;28;20600;-53
2022/04/06 10:00:23;;;;;;;98.47;41.93;;;;;;;;;;5098655;28;20215;-49
2022/04/06 10:02:59;;;;;;;85.47;43.33;;;;;;;;;;5097939;28;20199;-52
2022/04/06 10:05:27;;;;;;;241.87;122.23;;;;;;;;;;5097881;28;20738;-48
2022/04/06 10:07:55;;;;;;;101.07;41.23;;;;;;;;;;5098472;28;20254;-50
2022/04/06 10:10:23;;;;;;;130.80;47.67;;;;;;;;;;5097173;28;20199;-50
2022/04/06 10:12:50;;;;;;;111.70;55.43;;;;;;;;;;5097195;28;20252;-49
2022/04/06 10:15:35;;;;;;;32.27;20.83;;;;;;;;;;5082909;28;20214;-50
2022/04/06 10:18:04;;;;;;;50.43;32.80;;;;;;;;;;5098281;28;20202;-48
2022/04/06 10:20:45;;;;;;;70.40;37.07;;;;;;;;;;5097901;28;20207;-50
2022/04/06 10:23:31;;;;;;;159.33;50.13;;;;;;;;;;5097028;28;20585;-48
2022/04/06 10:26:34;;;;;;;1080.60;626.60;;;;;;;;;;5097589;28;20222;-47
2022/04/06 10:29:04;;;;;;;330.27;89.87;;;;;;;;;;5097653;28;20558;-48
2022/04/06 10:31:31;;;;;;;197.90;52.50;;;;;;;;;;5097563;28;20202;-48
2022/04/06 10:34:21;;;;;;;82.70;34.00;;;;;;;;;;5097313;28;20206;-50
2022/04/06 10:37:05;;;;;;;108.40;41.10;;;;;;;;;;5098144;28;20202;-48
2022/04/06 10:39:34;;;;;;;62.70;29.67;;;;;;;;;;5097696;28;20213;-48
2022/04/06 10:42:27;;;;;;;59.10;29.90;;;;;;;;;;5096710;28;20210;-48
2022/04/06 10:44:55;;;;;;;50.50;28.20;;;;;;;;;;5077629;28;20221;-50
2022/04/06 10:47:23;;;;;;;79.93;48.00;;;;;;;;;;5082193;28;20215;-52
2022/04/06 10:50:15;;;;;;;131.13;59.73;;;;;;;;;;5059097;28;20219;-50
2022/04/06 10:52:43;;;;;;;147.00;48.17;;;;;;;;;;5075851;28;20210;-49
2022/04/06 10:55:12;;;;;;;152.13;50.10;;;;;;;;;;5074001;28;20218;-50
2022/04/06 10:57:57;;;;;;;143.37;48.93;;;;;;;;;;5058616;28;20223;-48
2022/04/06 11:00:25;;;;;;;126.67;46.03;;;;;;;;;;5075192;28;20223;-48
2022/04/06 11:02:53;;;;;;;113.43;45.47;;;;;;;;;;5075570;28;20203;-56
2022/04/06 11:05:46;;;;;;;121.70;45.60;;;;;;;;;;5075098;28;20231;-50
2022/04/06 11:11:47;;;;;;;129.03;43.67;;;;;;;;;;5095019;28;20227;-56
2022/04/06 11:14:23;;;;;;;97.53;37.63;;;;;;;;;;5094676;28;20187;-56
2022/04/06 11:16:52;;;;;;;136.63;47.17;;;;;;;;;;5094868;28;20228;-56
2022/04/06 11:19:20;;;;;;;104.17;43.30;;;;;;;;;;5094657;28;20233;-57
2022/04/06 11:21:52;;;;;;;54.17;33.07;;;;;;;;;;5106093;28;20232;-57
2022/04/06 11:24:21;;;;;;;46.27;32.57;;;;;;;;;;5114475;28;20635;-56
2022/04/06 11:26:49;;;;;;;65.83;37.03;;;;;;;;;;5116299;28;20272;-56
2022/04/06 11:29:17;;;;;;;163.00;77.77;;;;;;;;;;5116408;28;20240;-57
2022/04/06 11:31:57;;;;;;;95.30;45.60;;;;;;;;;;5116590;28;20198;-57
2022/04/06 11:34:39;;;;;;;38.17;28.77;;;;;;;;;;5116534;28;20186;-57
2022/04/06 11:37:09;;;;;;;37.70;27.92;;;;;;;;;;5116379;28;20229;-57
2022/04/06 11:39:36;;;;;;;48.10;34.63;;;;;;;;;;5116400;28;20186;-57
2022/04/06 11:42:05;;;;;;;47.23;34.70;;;;;;;;;;5116234;28;20640;-56
2022/04/06 11:44:33;;;;;;;52.25;37.05;;;;;;;;;;5116182;28;20214;-57
2022/04/06 11:47:00;;;;;;;80.53;41.75;;;;;;;;;;5116448;28;20703;-56
2022/04/06 11:49:29;;;;;;;55.30;39.22;;;;;;;;;;5116355;28;20271;-57
2022/04/06 11:51:58;;;;;;;62.85;39.35;;;;;;;;;;5116425;28;20202;-57
2022/04/06 11:54:26;;;;;;;50.47;32.80;;;;;;;;;;5116209;28;20202;-57
2022/04/06 11:56:54;;;;;;;42.78;30.80;;;;;;;;;;5116255;28;20225;-57
2022/04/06 11:59:23;;;;;;;32.22;26.65;;;;;;;;;;5116376;28;20564;-57
2022/04/06 12:01:52;;;;;;;30.58;23.55;;;;;;;;;;5115926;28;20267;-57
2022/04/06 12:04:23;;;;;;;32.95;22.90;;;;;;;;;;5116022;28;20209;-57
2022/04/06 12:06:52;;;;;;;25.15;19.70;;;;;;;;;;5115550;28;20648;-57
2022/04/06 12:09:21;;;;;;;362.67;195.55;;;;;;;;;;5116065;28;20244;-58
2022/04/06 12:11:50;;;;;;;27.85;17.80;;;;;;;;;;5115728;28;20266;-57
2022/04/06 12:14:19;;;;;;;34.28;18.48;;;;;;;;;;5098669;28;20648;-56
2022/04/06 12:16:49;;;;;;;29.70;16.45;;;;;;;;;;5095328;28;20234;-57
2022/04/06 12:19:18;;;;;;;19.25;13.40;;;;;;;;;;5095401;28;20197;-56
2022/04/06 12:21:47;;;;;;;24.13;15.10;;;;;;;;;;5095620;28;20605;-55
2022/04/06 12:24:18;;;;;;;23.20;13.02;;;;;;;;;;5095294;28;20222;-57
2022/04/06 12:26:51;;;;;;;14.77;11.23;;;;;;;;;;5095225;28;20214;-58
2022/04/06 12:29:18;;;;;;;16.90;11.65;;;;;;;;;;5094893;28;20222;-58
2022/04/06 12:31:47;;;;;;;22.50;12.10;;;;;;;;;;5095099;28;20207;-57
2022/04/06 12:34:32;;;;;;;21.73;12.43;;;;;;;;;;5095538;28;20226;-58
2022/04/06 12:36:59;;;;;;;17.83;11.43;;;;;;;;;;5094991;28;20260;-57
2022/04/06 12:39:27;;;;;;;15.85;10.18;;;;;;;;;;5094898;28;20230;-58
2022/04/06 12:41:57;;;;;;;30.23;14.20;;;;;;;;;;5098340;28;20236;-58
2022/04/06 12:44:25;;;;;;;17.95;10.50;;;;;;;;;;5086307;28;20222;-58
2022/04/06 12:46:53;;;;;;;25.83;11.82;;;;;;;;;;5114022;28;20269;-58
2022/04/06 12:49:25;;;;;;;16.73;9.40;;;;;;;;;;5111306;27;20291;-58
2022/04/06 12:52:09;;;;;;;24.15;12.88;;;;;;;;;;5094494;28;20250;-58
2022/04/06 12:54:41;;;;;;;15.68;8.50;;;;;;;;;;5103087;28;20225;-57
2022/04/06 12:57:14;;;;;;;18.77;10.25;;;;;;;;;;5108941;28;20711;-58
2022/04/06 12:59:53;;;;;;;17.27;9.70;;;;;;;;;;5104979;27;20215;-58
2022/04/06 13:02:28;;;;;;;11.68;8.27;;;;;;;;;;5108125;28;20222;-60
2022/04/06 13:05:06;;;;;;;11.60;8.18;;;;;;;;;;5109140;27;20703;-59
2022/04/06 13:07:35;;;;;;;15.48;9.68;;;;;;;;;;5113301;28;20575;-59
2022/04/06 13:10:08;;;;;;;26.10;12.38;;;;;;;;;;5112893;28;20305;-59
2022/04/06 13:12:36;;;;;;;62.58;23.65;;;;;;;;;;5110158;28;20239;-59
2022/04/06 13:15:05;;;;;;;20.27;11.02;;;;;;;;;;5112801;27;20271;-59
2022/04/06 13:17:32;;;;;;;17.85;10.65;;;;;;;;;;5113097;28;20238;-60
2022/04/06 13:20:01;;;;;;;12.43;8.95;;;;;;;;;;5115588;28;20214;-60
2022/04/06 13:22:29;;;;;;;37.20;14.90;;;;;;;;;;5117340;28;20246;-59
2022/04/06 13:24:56;;;;;;;14.80;8.57;;;;;;;;;;5114522;27;20231;-60
2022/04/06 13:27:23;;;;;;;14.80;9.50;;;;;;;;;;5116469;28;20770;-59
2022/04/06 13:29:50;;;;;;;19.02;11.10;;;;;;;;;;5113613;27;20624;-59
2022/04/06 13:32:18;;;;;;;178.93;119.05;;;;;;;;;;5116978;28;20218;-59
2022/04/06 13:34:45;;;;;;;36.80;15.73;;;;;;;;;;5116638;27;20214;-59
2022/04/06 13:37:15;;;;;;;14.38;9.15;;;;;;;;;;5115671;28;20265;-60
2022/04/06 13:39:42;;;;;;;26.23;11.77;;;;;;;;;;5099426;28;20243;-59
2022/04/06 13:42:15;;;;;;;27.02;11.82;;;;;;;;;;5113389;28;20254;-59
2022/04/06 13:44:43;;;;;;;13.30;8.07;;;;;;;;;;5116389;28;20210;-62
2022/04/06 13:47:12;;;;;;;16.23;9.63;;;;;;;;;;5116330;28;20291;-62
2022/04/06 13:49:39;;;;;;;20.80;10.25;;;;;;;;;;5116260;28;20222;-63
2022/04/06 13:52:07;;;;;;;20.30;10.43;;;;;;;;;;5116526;28;20603;-59
2022/04/06 13:54:34;;;;;;;50.65;20.63;;;;;;;;;;5116229;27;20321;-62
2022/04/06 13:57:02;;;;;;;64.82;21.35;;;;;;;;;;5116160;28;20300;-62
2022/04/06 13:59:29;;;;;;;15.07;8.57;;;;;;;;;;5112661;27;20256;-61
2022/04/06 14:01:56;;;;;;;34.40;13.73;;;;;;;;;;5113583;28;20255;-60
2022/04/06 14:04:23;;;;;;;29.92;12.65;;;;;;;;;;5115925;28;20222;-61
2022/04/06 14:06:51;;;;;;;13.23;7.53;;;;;;;;;;5117008;28;20222;-60
2022/04/06 14:09:19;;;;;;;17.35;8.80;;;;;;;;;;5117486;28;20319;-59
2022/04/06 14:11:47;;;;;;;25.27;10.68;;;;;;;;;;5117543;28;20265;-59
2022/04/06 14:14:14;;;;;;;56.55;33.40;;;;;;;;;;5116987;28;20269;-57
2022/04/06 14:16:41;;;;;;;38.65;14.10;;;;;;;;;;5117417;27;20225;-57
2022/04/06 14:19:09;;;;;;;20.00;8.88;;;;;;;;;;5117087;28;20241;-55
2022/04/06 14:21:37;;;;;;;34.67;12.88;;;;;;;;;;5117330;27;20577;-56
2022/04/06 14:24:06;;;;;;;14.85;7.68;;;;;;;;;;5117509;28;20241;-55
2022/04/06 14:26:34;;;;;;;32.55;12.55;;;;;;;;;;5116193;28;20218;-53
2022/04/06 14:29:02;;;;;;;25.15;10.40;;;;;;;;;;5115727;27;20789;-52
2022/04/06 14:31:29;;;;;;;45.10;15.50;;;;;;;;;;5117130;27;20222;-54
2022/04/06 14:33:56;;;;;;;42.97;14.18;;;;;;;;;;5112866;28;20221;-58
2022/04/06 14:36:24;;;;;;;23.35;10.65;;;;;;;;;;5105697;27;20245;-59